Time;durP1;ratioP1;P1;durP2;ratioP2;P2;SDS_P1;SDS_P2;PMS_P1;PMS_P2;Temp;Humidity;BMP_temperature;BMP_pressure;BME280_temperature;BME280_humidity;BME280_pressure;Samples;Min_cycle;Max_cycle;Signal;HPM_P1;HPM_P2
2022/11/07 00:01:51;;;;;;;4.60;3.55;;;;;;;;;;5033496;28;20201;-64
2022/11/07 00:04:18;;;;;;;8.73;5.70;;;;;;;;;;5033737;28;20203;-64
2022/11/07 00:06:46;;;;;;;8.05;4.68;;;;;;;;;;5033779;28;20230;-64
2022/11/07 00:09:13;;;;;;;4.22;3.83;;;;;;;;;;5034014;28;20236;-64
2022/11/07 00:11:40;;;;;;;4.00;3.60;;;;;;;;;;5034548;28;20213;-64
2022/11/07 00:14:07;;;;;;;4.57;3.63;;;;;;;;;;5035013;28;20223;-63
2022/11/07 00:16:34;;;;;;;3.78;3.47;;;;;;;;;;5035576;28;20735;-63
2022/11/07 00:19:01;;;;;;;4.47;3.33;;;;;;;;;;5040573;28;20202;-64
2022/11/07 00:21:29;;;;;;;4.57;3.55;;;;;;;;;;5040517;28;20211;-63
2022/11/07 00:23:57;;;;;;;3.90;3.50;;;;;;;;;;5040621;28;20203;-64
2022/11/07 00:26:24;;;;;;;4.63;3.30;;;;;;;;;;5046225;28;20242;-62
2022/11/07 00:28:51;;;;;;;3.30;3.00;;;;;;;;;;5043435;28;20214;-65
2022/11/07 00:31:20;;;;;;;3.30;2.90;;;;;;;;;;5039665;28;20717;-64
2022/11/07 00:33:47;;;;;;;4.22;3.83;;;;;;;;;;5038005;28;20693;-64
2022/11/07 00:36:17;;;;;;;3.50;3.03;;;;;;;;;;5037688;28;20240;-64
2022/11/07 00:38:44;;;;;;;3.25;2.70;;;;;;;;;;5036893;28;20483;-63
2022/11/07 00:41:13;;;;;;;4.03;2.90;;;;;;;;;;5037531;28;20214;-63
2022/11/07 00:43:40;;;;;;;4.38;2.90;;;;;;;;;;5037245;28;20204;-63
2022/11/07 00:46:08;;;;;;;4.55;2.92;;;;;;;;;;5037276;28;20228;-64
2022/11/07 00:48:35;;;;;;;3.15;2.70;;;;;;;;;;5036956;28;20230;-64
2022/11/07 00:51:06;;;;;;;3.85;3.45;;;;;;;;;;5037060;28;20201;-64
2022/11/07 00:53:33;;;;;;;3.55;3.25;;;;;;;;;;5036637;28;20184;-64
2022/11/07 00:56:01;;;;;;;3.65;3.03;;;;;;;;;;5036958;28;20225;-64
2022/11/07 00:58:29;;;;;;;4.07;2.90;;;;;;;;;;5036898;28;20203;-64
2022/11/07 01:00:56;;;;;;;3.37;2.80;;;;;;;;;;5036840;28;20451;-64
2022/11/07 01:06:08;;;;;;;3.08;2.78;;;;;;;;;;5036894;28;20258;-64
2022/11/07 01:08:36;;;;;;;2.77;2.47;;;;;;;;;;5036811;28;20207;-64
2022/11/07 01:11:05;;;;;;;2.23;2.03;;;;;;;;;;5036345;28;20817;-63
2022/11/07 01:13:34;;;;;;;9.50;3.20;;;;;;;;;;5036672;28;20533;-64
2022/11/07 01:16:01;;;;;;;3.80;2.67;;;;;;;;;;5036208;28;20866;-64
2022/11/07 01:18:28;;;;;;;3.30;2.70;;;;;;;;;;5036798;28;20446;-65
2022/11/07 01:20:55;;;;;;;3.40;2.63;;;;;;;;;;5036951;28;20446;-64
2022/11/07 01:23:22;;;;;;;3.25;2.70;;;;;;;;;;5036833;28;20447;-63
2022/11/07 01:25:50;;;;;;;3.33;2.88;;;;;;;;;;5036143;28;20226;-63
2022/11/07 01:28:17;;;;;;;3.63;2.97;;;;;;;;;;5036363;28;20212;-64
2022/11/07 01:30:45;;;;;;;2.33;2.13;;;;;;;;;;5036356;28;20453;-64
2022/11/07 01:33:12;;;;;;;5.68;4.45;;;;;;;;;;5036359;28;20441;-64
2022/11/07 01:35:40;;;;;;;3.13;2.45;;;;;;;;;;5035875;28;20233;-64
2022/11/07 01:38:07;;;;;;;3.43;2.53;;;;;;;;;;5035385;28;20236;-65
2022/11/07 01:41:19;;;;;;;2.78;2.40;;;;;;;;;;5036115;28;20442;-65
2022/11/07 01:43:21;;;;;;;2.70;2.50;;;;;;;;;;5035614;28;20210;-64
2022/11/07 01:45:50;;;;;;;4.03;2.53;;;;;;;;;;5035799;28;20471;-64
2022/11/07 01:48:17;;;;;;;2.60;2.30;;;;;;;;;;5037520;28;20458;-63
2022/11/07 01:50:44;;;;;;;3.77;2.27;;;;;;;;;;5036890;28;20447;-64
2022/11/07 01:53:11;;;;;;;3.67;2.00;;;;;;;;;;5036313;28;20456;-61
2022/11/07 01:55:38;;;;;;;2.67;2.40;;;;;;;;;;5036960;28;20491;-64
2022/11/07 01:58:06;;;;;;;3.57;2.67;;;;;;;;;;5036512;28;20939;-63
2022/11/07 02:00:34;;;;;;;3.87;2.43;;;;;;;;;;5036902;28;20447;-64
2022/11/07 02:03:06;;;;;;;2.30;2.10;;;;;;;;;;5036778;28;20454;-63
2022/11/07 02:05:34;;;;;;;4.43;2.30;;;;;;;;;;5036474;28;20466;-64
2022/11/07 02:08:03;;;;;;;2.40;2.10;;;;;;;;;;5036583;28;20216;-63
2022/11/07 02:10:30;;;;;;;4.53;2.47;;;;;;;;;;5036418;28;20458;-64
2022/11/07 02:12:59;;;;;;;4.10;2.37;;;;;;;;;;5037195;28;20446;-65
2022/11/07 02:15:26;;;;;;;2.60;2.07;;;;;;;;;;5038345;28;20494;-64
2022/11/07 02:17:53;;;;;;;2.40;1.83;;;;;;;;;;5037224;28;20450;-65
2022/11/07 02:20:22;;;;;;;3.07;2.33;;;;;;;;;;5038644;28;20438;-63
2022/11/07 02:22:50;;;;;;;2.87;2.20;;;;;;;;;;5040580;28;20522;-64
2022/11/07 02:25:19;;;;;;;2.30;2.07;;;;;;;;;;5040588;28;20744;-65
2022/11/07 02:27:47;;;;;;;3.90;2.10;;;;;;;;;;5039792;28;20776;-64
2022/11/07 02:30:16;;;;;;;3.37;1.90;;;;;;;;;;5038916;28;20449;-65
2022/11/07 02:32:43;;;;;;;2.13;1.93;;;;;;;;;;5040093;28;20446;-64
2022/11/07 02:35:25;;;;;;;3.50;2.30;;;;;;;;;;5038787;28;20481;-66
2022/11/07 02:37:52;;;;;;;2.40;1.83;;;;;;;;;;5035947;28;20438;-64
2022/11/07 02:40:20;;;;;;;3.03;2.47;;;;;;;;;;5036070;28;20794;-64
2022/11/07 02:42:48;;;;;;;3.67;2.40;;;;;;;;;;5037040;28;20554;-64
2022/11/07 02:45:16;;;;;;;5.63;2.60;;;;;;;;;;5036965;28;20450;-65
2022/11/07 02:47:43;;;;;;;2.30;1.90;;;;;;;;;;5037071;28;20466;-64
2022/11/07 02:50:11;;;;;;;2.83;2.13;;;;;;;;;;5036255;28;20447;-64
2022/11/07 02:52:39;;;;;;;2.10;1.77;;;;;;;;;;5036491;28;20453;-63
2022/11/07 02:55:07;;;;;;;3.90;2.30;;;;;;;;;;5036006;28;20850;-64
2022/11/07 02:57:35;;;;;;;2.80;2.17;;;;;;;;;;5035629;28;20469;-65
2022/11/07 03:00:02;;;;;;;2.83;2.00;;;;;;;;;;5035653;28;20446;-64
2022/11/07 03:02:29;;;;;;;2.77;2.27;;;;;;;;;;5035596;28;20521;-64
2022/11/07 03:04:57;;;;;;;4.37;2.30;;;;;;;;;;5035374;28;20445;-63
2022/11/07 03:07:24;;;;;;;3.00;2.80;;;;;;;;;;5034959;28;20466;-64
2022/11/07 03:09:51;;;;;;;3.70;2.50;;;;;;;;;;5035058;28;20457;-64
2022/11/07 03:12:18;;;;;;;3.60;2.03;;;;;;;;;;5035025;28;20455;-64
2022/11/07 03:14:46;;;;;;;3.00;2.00;;;;;;;;;;5034850;28;20483;-63
2022/11/07 03:17:14;;;;;;;2.13;1.70;;;;;;;;;;5035367;28;20488;-65
2022/11/07 03:19:41;;;;;;;2.60;1.70;;;;;;;;;;5035257;28;20454;-65
2022/11/07 03:22:08;;;;;;;3.80;2.00;;;;;;;;;;5034576;28;20446;-64
2022/11/07 03:24:35;;;;;;;4.87;2.30;;;;;;;;;;5034876;28;20453;-64
2022/11/07 03:27:02;;;;;;;2.33;1.80;;;;;;;;;;5034306;28;20490;-65
2022/11/07 03:29:29;;;;;;;4.80;2.10;;;;;;;;;;5034115;28;20442;-64
2022/11/07 03:31:57;;;;;;;2.23;2.03;;;;;;;;;;5034324;28;20455;-64
2022/11/07 03:34:24;;;;;;;4.40;2.60;;;;;;;;;;5033883;28;20457;-64
2022/11/07 03:36:52;;;;;;;3.33;2.10;;;;;;;;;;5033783;28;20485;-64
2022/11/07 03:39:19;;;;;;;2.40;1.73;;;;;;;;;;5033923;28;20454;-64
2022/11/07 03:41:46;;;;;;;3.20;2.30;;;;;;;;;;5033830;28;20462;-64
2022/11/07 03:44:13;;;;;;;3.03;1.87;;;;;;;;;;5033892;28;20456;-65
2022/11/07 03:46:40;;;;;;;7.37;2.07;;;;;;;;;;5033631;28;20481;-64
2022/11/07 03:49:08;;;;;;;2.77;2.00;;;;;;;;;;5033587;28;20450;-64
2022/11/07 03:51:35;;;;;;;2.57;1.83;;;;;;;;;;5041205;28;20442;-65
2022/11/07 03:54:02;;;;;;;2.37;1.80;;;;;;;;;;5045974;28;20442;-65
2022/11/07 03:56:29;;;;;;;3.30;1.83;;;;;;;;;;5043087;28;20478;-64
2022/11/07 03:58:56;;;;;;;4.10;2.05;;;;;;;;;;5033717;28;20442;-64
2022/11/07 04:01:23;;;;;;;2.40;1.60;;;;;;;;;;5033106;28;20199;-64
2022/11/07 04:03:51;;;;;;;4.10;2.30;;;;;;;;;;5033899;28;20458;-64
2022/11/07 04:06:19;;;;;;;4.60;1.90;;;;;;;;;;5033559;28;20473;-65
2022/11/07 04:10:32;;;;;;;2.33;2.10;;;;;;;;;;5092395;28;20959;-64
2022/11/07 04:18:40;;;;;;;3.80;2.03;;;;;;;;;;5083544;28;20589;-65
2022/11/07 04:21:07;;;;;;;2.17;1.70;;;;;;;;;;5092111;28;20451;-64
2022/11/07 04:23:35;;;;;;;3.80;2.20;;;;;;;;;;5090884;28;20460;-64
2022/11/07 04:28:48;;;;;;;5.47;1.77;;;;;;;;;;5090585;28;20972;-64
2022/11/07 04:31:15;;;;;;;3.33;1.50;;;;;;;;;;5090236;28;20457;-65
2022/11/07 04:33:42;;;;;;;3.23;2.00;;;;;;;;;;5090213;28;20450;-65
2022/11/07 04:36:09;;;;;;;2.90;1.60;;;;;;;;;;5090002;28;20460;-64
2022/11/07 04:38:36;;;;;;;4.47;1.90;;;;;;;;;;5090450;28;20439;-65
2022/11/07 04:41:05;;;;;;;2.17;1.60;;;;;;;;;;5090428;28;20449;-64
2022/11/07 04:43:32;;;;;;;2.93;1.70;;;;;;;;;;5090283;28;20451;-64
2022/11/07 04:45:59;;;;;;;2.50;1.67;;;;;;;;;;5089977;28;20474;-64
2022/11/07 04:48:26;;;;;;;4.10;1.93;;;;;;;;;;5090175;28;20449;-64
2022/11/07 04:50:53;;;;;;;4.13;1.80;;;;;;;;;;5089803;28;20448;-65
2022/11/07 04:53:20;;;;;;;2.53;1.57;;;;;;;;;;5090713;28;20818;-65
2022/11/07 04:55:47;;;;;;;4.47;2.27;;;;;;;;;;5090450;28;20971;-64
2022/11/07 04:58:15;;;;;;;3.90;1.73;;;;;;;;;;5089825;28;20794;-64
2022/11/07 05:00:42;;;;;;;1.63;1.53;;;;;;;;;;5090261;28;20206;-64
2022/11/07 05:03:09;;;;;;;3.97;1.97;;;;;;;;;;5090223;28;20444;-64
2022/11/07 05:05:37;;;;;;;3.42;1.85;;;;;;;;;;5090034;28;20465;-64
2022/11/07 05:08:04;;;;;;;2.30;1.75;;;;;;;;;;5091483;28;20203;-65
2022/11/07 05:10:31;;;;;;;4.57;1.80;;;;;;;;;;5091291;28;20233;-64
2022/11/07 05:12:58;;;;;;;2.03;1.60;;;;;;;;;;5092498;28;20447;-62
2022/11/07 05:15:27;;;;;;;2.73;1.90;;;;;;;;;;5090328;28;20902;-64
2022/11/07 05:17:54;;;;;;;2.30;1.50;;;;;;;;;;5089664;28;20441;-65
2022/11/07 05:20:27;;;;;;;3.10;2.00;;;;;;;;;;5080467;28;20447;-65
2022/11/07 05:23:13;;;;;;;2.80;1.87;;;;;;;;;;5060746;28;20434;-63
2022/11/07 05:25:40;;;;;;;4.30;1.67;;;;;;;;;;5060121;28;20471;-65
2022/11/07 05:28:07;;;;;;;4.47;1.63;;;;;;;;;;5075959;28;20448;-64
2022/11/07 05:30:38;;;;;;;3.40;1.83;;;;;;;;;;5075750;28;20485;-64
2022/11/07 05:33:05;;;;;;;3.80;1.90;;;;;;;;;;5057505;28;20937;-64
2022/11/07 05:35:32;;;;;;;4.23;2.30;;;;;;;;;;5059480;28;20464;-64
2022/11/07 05:37:59;;;;;;;2.00;1.70;;;;;;;;;;5076518;28;20444;-64
2022/11/07 05:40:26;;;;;;;5.27;1.50;;;;;;;;;;5081269;28;20438;-65
2022/11/07 05:42:53;;;;;;;2.73;1.87;;;;;;;;;;5093672;28;20444;-65
2022/11/07 05:45:20;;;;;;;2.70;1.80;;;;;;;;;;5083552;28;20440;-64
2022/11/07 05:47:49;;;;;;;2.70;1.80;;;;;;;;;;5074912;28;20467;-65
2022/11/07 05:50:16;;;;;;;4.70;2.60;;;;;;;;;;5076945;28;20480;-66
2022/11/07 05:52:43;;;;;;;2.10;1.33;;;;;;;;;;5080764;28;20449;-66
2022/11/07 05:55:10;;;;;;;2.90;1.73;;;;;;;;;;5081485;28;20450;-65
2022/11/07 05:57:37;;;;;;;2.23;1.73;;;;;;;;;;5067534;28;20460;-64
2022/11/07 06:00:04;;;;;;;3.57;1.80;;;;;;;;;;5067210;28;20446;-65
2022/11/07 06:02:31;;;;;;;2.43;1.93;;;;;;;;;;5056673;28;20453;-66
2022/11/07 06:05:00;;;;;;;2.37;1.50;;;;;;;;;;5056558;28;20460;-65
2022/11/07 06:07:27;;;;;;;2.53;1.73;;;;;;;;;;5055076;28;20465;-66
2022/11/07 06:09:54;;;;;;;2.80;1.60;;;;;;;;;;5054589;28;20498;-65
2022/11/07 06:12:21;;;;;;;3.10;1.43;;;;;;;;;;5055304;28;20464;-66
2022/11/07 06:14:48;;;;;;;2.10;1.50;;;;;;;;;;5065662;28;20486;-66
2022/11/07 06:17:15;;;;;;;3.13;1.47;;;;;;;;;;5074543;28;20469;-66
2022/11/07 06:19:42;;;;;;;3.47;1.50;;;;;;;;;;5065150;28;20980;-66
2022/11/07 06:22:10;;;;;;;1.67;1.30;;;;;;;;;;5062400;28;20948;-66
2022/11/07 06:24:38;;;;;;;4.13;1.90;;;;;;;;;;5072372;28;20813;-65
2022/11/07 06:27:05;;;;;;;2.23;1.83;;;;;;;;;;5092834;28;20761;-66
2022/11/07 06:29:32;;;;;;;2.00;1.40;;;;;;;;;;5088173;28;20530;-67
2022/11/07 06:31:59;;;;;;;2.07;1.60;;;;;;;;;;5084387;28;20451;-67
2022/11/07 06:34:26;;;;;;;3.47;1.40;;;;;;;;;;5084218;28;20446;-66
2022/11/07 06:36:53;;;;;;;3.67;1.90;;;;;;;;;;5077572;28;20463;-66
2022/11/07 06:39:22;;;;;;;3.20;1.73;;;;;;;;;;5078686;28;20945;-66
2022/11/07 06:41:49;;;;;;;3.90;1.87;;;;;;;;;;5075375;28;20445;-66
2022/11/07 06:44:17;;;;;;;2.33;1.87;;;;;;;;;;5075502;28;20508;-66
2022/11/07 06:46:45;;;;;;;3.60;1.40;;;;;;;;;;5075087;28;20490;-65
2022/11/07 06:49:12;;;;;;;3.10;1.63;;;;;;;;;;5075217;28;20547;-65
2022/11/07 06:51:40;;;;;;;6.00;1.87;;;;;;;;;;5075091;28;20451;-65
2022/11/07 06:54:07;;;;;;;3.47;2.13;;;;;;;;;;5075073;28;20449;-65
2022/11/07 06:56:35;;;;;;;3.00;1.93;;;;;;;;;;5075496;28;20474;-65
2022/11/07 06:59:02;;;;;;;4.20;1.80;;;;;;;;;;5074668;28;20444;-65
2022/11/07 07:01:29;;;;;;;3.53;1.60;;;;;;;;;;5074368;28;20449;-66
2022/11/07 07:03:56;;;;;;;3.83;1.70;;;;;;;;;;5074583;28;20447;-65
2022/11/07 07:06:23;;;;;;;5.00;1.83;;;;;;;;;;5074409;28;21006;-66
2022/11/07 07:08:50;;;;;;;4.13;2.00;;;;;;;;;;5074576;28;20973;-66
2022/11/07 07:11:18;;;;;;;3.37;2.10;;;;;;;;;;5074477;28;20447;-66
2022/11/07 07:13:46;;;;;;;5.93;2.63;;;;;;;;;;5073738;28;20994;-66
2022/11/07 07:16:13;;;;;;;4.87;1.80;;;;;;;;;;5074161;28;20462;-66
2022/11/07 07:18:40;;;;;;;3.23;1.37;;;;;;;;;;5074275;28;20548;-65
2022/11/07 07:21:09;;;;;;;7.40;1.80;;;;;;;;;;5075100;28;20523;-66
2022/11/07 07:23:37;;;;;;;4.50;2.23;;;;;;;;;;5074775;28;20455;-66
2022/11/07 07:26:05;;;;;;;8.33;2.00;;;;;;;;;;5074753;28;20554;-66
2022/11/07 07:28:32;;;;;;;5.90;2.23;;;;;;;;;;5074667;28;20452;-66
2022/11/07 07:31:11;;;;;;;3.97;2.00;;;;;;;;;;5074551;28;20485;-65
2022/11/07 07:33:38;;;;;;;3.53;1.50;;;;;;;;;;5073996;28;20940;-66
2022/11/07 07:36:06;;;;;;;5.47;2.10;;;;;;;;;;5077089;28;20463;-66
2022/11/07 07:38:33;;;;;;;5.00;1.90;;;;;;;;;;5075457;28;20858;-66
2022/11/07 07:41:00;;;;;;;4.60;2.20;;;;;;;;;;5074601;28;20437;-66
2022/11/07 07:43:27;;;;;;;6.67;1.80;;;;;;;;;;5074190;28;20456;-66
2022/11/07 07:45:55;;;;;;;3.60;1.60;;;;;;;;;;5073928;28;20463;-66
2022/11/07 07:48:23;;;;;;;3.57;1.67;;;;;;;;;;5073763;28;20450;-66
2022/11/07 07:50:50;;;;;;;6.33;2.37;;;;;;;;;;5074011;28;20476;-67
2022/11/07 07:53:17;;;;;;;5.77;1.83;;;;;;;;;;5073305;28;20455;-66
2022/11/07 07:55:44;;;;;;;6.50;2.30;;;;;;;;;;5073927;28;20471;-65
2022/11/07 07:58:11;;;;;;;2.70;2.07;;;;;;;;;;5073547;28;20799;-66
2022/11/07 08:00:39;;;;;;;4.17;1.50;;;;;;;;;;5073268;28;20466;-66
2022/11/07 08:03:08;;;;;;;2.60;1.40;;;;;;;;;;5076500;28;20453;-66
2022/11/07 08:05:37;;;;;;;4.60;1.70;;;;;;;;;;5079448;28;20462;-65
2022/11/07 08:08:05;;;;;;;3.93;1.73;;;;;;;;;;5082007;28;20439;-66
2022/11/07 08:10:32;;;;;;;4.47;1.87;;;;;;;;;;5082361;28;20490;-66
2022/11/07 08:12:59;;;;;;;4.67;1.70;;;;;;;;;;5082755;28;20454;-65
2022/11/07 08:15:26;;;;;;;5.87;1.63;;;;;;;;;;5082255;28;20972;-66
2022/11/07 08:17:53;;;;;;;5.40;1.57;;;;;;;;;;5080200;28;20440;-67
2022/11/07 08:20:23;;;;;;;9.30;2.10;;;;;;;;;;5074795;28;20955;-67
2022/11/07 08:22:51;;;;;;;9.53;3.30;;;;;;;;;;5074453;28;20943;-65
2022/11/07 08:25:18;;;;;;;5.57;1.80;;;;;;;;;;5075659;28;20476;-66
2022/11/07 08:27:46;;;;;;;13.50;2.93;;;;;;;;;;5074665;28;20451;-66
2022/11/07 08:30:14;;;;;;;13.93;2.77;;;;;;;;;;5072980;28;20478;-66
2022/11/07 08:32:41;;;;;;;8.97;2.40;;;;;;;;;;5073071;28;20981;-66
2022/11/07 08:35:08;;;;;;;3.10;1.70;;;;;;;;;;5073008;28;20920;-66
2022/11/07 08:37:36;;;;;;;4.23;2.20;;;;;;;;;;5072833;28;20473;-66
2022/11/07 08:40:05;;;;;;;2.17;1.50;;;;;;;;;;5073113;28;20455;-65
2022/11/07 08:42:32;;;;;;;5.07;2.00;;;;;;;;;;5073149;28;20450;-66
2022/11/07 08:44:59;;;;;;;4.80;1.70;;;;;;;;;;5071806;28;20443;-66
2022/11/07 08:47:27;;;;;;;3.30;1.30;;;;;;;;;;5073020;28;20828;-65
2022/11/07 08:49:54;;;;;;;3.63;1.77;;;;;;;;;;5072769;28;20481;-67
2022/11/07 08:52:21;;;;;;;5.43;1.97;;;;;;;;;;5072901;28;20447;-66
2022/11/07 08:54:48;;;;;;;4.40;1.77;;;;;;;;;;5073360;28;20450;-67
2022/11/07 08:57:16;;;;;;;4.93;1.90;;;;;;;;;;5076203;28;20462;-66
2022/11/07 08:59:43;;;;;;;3.70;1.73;;;;;;;;;;5076312;28;20462;-66
2022/11/07 09:02:11;;;;;;;2.70;1.40;;;;;;;;;;5076606;28;20450;-66
2022/11/07 09:04:38;;;;;;;3.87;1.57;;;;;;;;;;5076283;28;20928;-66
2022/11/07 09:07:05;;;;;;;3.00;1.80;;;;;;;;;;5076563;28;20980;-67
2022/11/07 09:09:32;;;;;;;5.77;1.40;;;;;;;;;;5076004;28;20476;-66
2022/11/07 09:11:59;;;;;;;8.27;2.40;;;;;;;;;;5076564;28;20450;-66
2022/11/07 09:14:28;;;;;;;6.80;2.80;;;;;;;;;;5076136;28;20846;-65
2022/11/07 09:16:55;;;;;;;4.77;1.40;;;;;;;;;;5081660;28;20469;-66
2022/11/07 09:19:22;;;;;;;3.43;1.70;;;;;;;;;;5089158;28;20447;-65
2022/11/07 09:21:49;;;;;;;9.00;2.53;;;;;;;;;;5089612;28;20441;-67
2022/11/07 09:24:16;;;;;;;5.80;1.70;;;;;;;;;;5091448;28;20456;-67
2022/11/07 09:26:43;;;;;;;1.77;1.30;;;;;;;;;;5087745;28;20463;-66
2022/11/07 09:29:10;;;;;;;5.10;1.87;;;;;;;;;;5077665;28;20442;-65
2022/11/07 09:31:39;;;;;;;5.20;2.00;;;;;;;;;;5076235;28;20482;-65
2022/11/07 09:34:06;;;;;;;8.67;2.03;;;;;;;;;;5076095;28;20950;-66
2022/11/07 09:36:33;;;;;;;8.60;1.70;;;;;;;;;;5076321;28;20493;-67
2022/11/07 09:39:00;;;;;;;7.63;2.80;;;;;;;;;;5076102;28;20454;-66
2022/11/07 09:41:33;;;;;;;2.33;1.33;;;;;;;;;;5075790;28;20450;-66
2022/11/07 09:44:07;;;;;;;4.00;1.37;;;;;;;;;;5075786;28;20434;-66
2022/11/07 09:46:38;;;;;;;10.30;2.57;;;;;;;;;;5076329;28;20459;-65
2022/11/07 09:49:14;;;;;;;6.50;1.67;;;;;;;;;;5076225;28;20439;-65
2022/11/07 09:51:44;;;;;;;4.63;1.70;;;;;;;;;;5076312;28;20825;-65
2022/11/07 09:54:13;;;;;;;3.77;1.70;;;;;;;;;;5076105;28;20534;-66
2022/11/07 09:56:41;;;;;;;3.57;1.20;;;;;;;;;;5075361;28;20475;-65
2022/11/07 09:59:09;;;;;;;4.43;1.80;;;;;;;;;;5075618;28;20447;-66
2022/11/07 10:01:36;;;;;;;4.37;1.50;;;;;;;;;;5075869;28;20446;-66
2022/11/07 10:04:03;;;;;;;5.27;1.87;;;;;;;;;;5074930;28;20791;-65
2022/11/07 10:06:32;;;;;;;5.87;2.37;;;;;;;;;;5075429;28;20459;-66
2022/11/07 10:09:06;;;;;;;4.17;2.07;;;;;;;;;;5074956;28;20526;-66
2022/11/07 10:11:35;;;;;;;5.70;1.87;;;;;;;;;;5075872;28;20467;-67
2022/11/07 10:14:05;;;;;;;6.60;2.97;;;;;;;;;;5075160;28;20446;-66
2022/11/07 10:16:36;;;;;;;10.33;2.80;;;;;;;;;;5074591;28;20464;-65
2022/11/07 10:19:09;;;;;;;5.47;2.43;;;;;;;;;;5075219;28;20443;-66
2022/11/07 10:21:41;;;;;;;5.77;1.67;;;;;;;;;;5083089;22;20492;-67
2022/11/07 10:24:17;;;;;;;4.60;1.73;;;;;;;;;;5035998;28;20441;-67
2022/11/07 10:26:45;;;;;;;4.53;1.97;;;;;;;;;;5034800;28;20904;-66
2022/11/07 10:29:13;;;;;;;5.23;1.70;;;;;;;;;;5034760;28;20995;-66
2022/11/07 10:31:42;;;;;;;4.67;1.90;;;;;;;;;;5034964;28;20498;-68
2022/11/07 10:34:12;;;;;;;6.40;2.60;;;;;;;;;;5034724;28;20497;-67
2022/11/07 10:36:41;;;;;;;4.40;1.80;;;;;;;;;;5034704;28;20444;-66
2022/11/07 10:39:13;;;;;;;5.00;2.40;;;;;;;;;;5034628;28;20968;-67
2022/11/07 10:41:41;;;;;;;5.70;1.43;;;;;;;;;;5035603;28;20460;-68
2022/11/07 10:44:14;;;;;;;4.37;1.43;;;;;;;;;;5034664;28;20458;-68
2022/11/07 10:46:41;;;;;;;3.83;1.70;;;;;;;;;;5034976;28;20436;-65
2022/11/07 10:49:18;;;;;;;6.17;2.17;;;;;;;;;;5034656;28;20460;-66
2022/11/07 10:51:46;;;;;;;4.50;1.87;;;;;;;;;;5034195;28;20484;-67
2022/11/07 10:54:20;;;;;;;5.87;1.87;;;;;;;;;;5033961;28;20445;-67
2022/11/07 10:56:47;;;;;;;4.13;1.60;;;;;;;;;;5035027;28;20437;-67
2022/11/07 10:59:21;;;;;;;3.63;1.93;;;;;;;;;;5034568;28;20463;-67
2022/11/07 11:01:50;;;;;;;2.83;1.43;;;;;;;;;;5034151;28;20476;-67
2022/11/07 11:04:21;;;;;;;4.30;2.00;;;;;;;;;;5034110;28;20446;-66
2022/11/07 11:06:58;;;;;;;5.80;1.90;;;;;;;;;;5034923;28;20432;-67
2022/11/07 11:09:29;;;;;;;5.30;1.83;;;;;;;;;;5036642;28;20439;-67
2022/11/07 11:11:56;;;;;;;5.10;2.40;;;;;;;;;;5034860;28;20491;-66
2022/11/07 11:14:24;;;;;;;3.20;1.63;;;;;;;;;;5034496;28;20459;-66
2022/11/07 11:16:53;;;;;;;8.03;2.30;;;;;;;;;;5034283;28;20449;-66
2022/11/07 11:19:23;;;;;;;5.13;2.83;;;;;;;;;;5033516;28;20460;-67
2022/11/07 11:21:51;;;;;;;3.90;1.67;;;;;;;;;;5034254;28;20490;-66
2022/11/07 11:24:25;;;;;;;8.93;2.13;;;;;;;;;;5034375;28;20807;-66
2022/11/07 11:26:54;;;;;;;8.43;2.23;;;;;;;;;;5034580;28;20913;-67
2022/11/07 11:29:25;;;;;;;3.20;1.60;;;;;;;;;;5035548;28;20452;-67
2022/11/07 11:31:53;;;;;;;5.33;2.20;;;;;;;;;;5035904;28;20574;-67
2022/11/07 11:34:22;;;;;;;6.93;1.60;;;;;;;;;;5035498;28;20483;-67
2022/11/07 11:36:53;;;;;;;5.83;2.40;;;;;;;;;;5036588;28;20812;-65
2022/11/07 11:39:25;;;;;;;3.33;1.80;;;;;;;;;;5036604;28;20426;-65
2022/11/07 11:41:55;;;;;;;4.10;1.40;;;;;;;;;;5033612;28;20469;-65
2022/11/07 11:44:26;;;;;;;4.07;1.80;;;;;;;;;;5033276;28;20944;-66
2022/11/07 11:46:57;;;;;;;4.93;1.83;;;;;;;;;;5033732;28;20434;-66
2022/11/07 11:49:28;;;;;;;5.10;2.43;;;;;;;;;;5033722;28;20433;-67
2022/11/07 11:51:57;;;;;;;3.77;1.70;;;;;;;;;;5033417;28;20993;-67
2022/11/07 11:54:24;;;;;;;6.37;1.97;;;;;;;;;;5034799;28;20442;-66
2022/11/07 11:56:52;;;;;;;8.80;1.80;;;;;;;;;;5034173;28;20450;-65
2022/11/07 11:59:27;;;;;;;5.77;1.57;;;;;;;;;;5033516;28;20451;-66
2022/11/07 12:01:58;;;;;;;4.80;1.77;;;;;;;;;;5034074;28;20464;-66
2022/11/07 12:04:37;;;;;;;4.50;1.63;;;;;;;;;;5034774;28;20910;-67
2022/11/07 12:07:11;;;;;;;2.60;1.40;;;;;;;;;;5035835;28;20461;-67
2022/11/07 12:09:42;;;;;;;3.40;2.33;;;;;;;;;;5033855;28;20439;-67
2022/11/07 12:12:16;;;;;;;4.87;1.80;;;;;;;;;;5033981;28;20854;-67
2022/11/07 12:14:50;;;;;;;2.23;1.47;;;;;;;;;;5034528;28;20442;-67
2022/11/07 12:17:20;;;;;;;5.00;1.80;;;;;;;;;;5033825;28;20513;-66
2022/11/07 12:19:51;;;;;;;5.43;1.93;;;;;;;;;;5033692;28;20448;-67
2022/11/07 12:22:22;;;;;;;7.30;2.43;;;;;;;;;;5033342;28;20479;-67
2022/11/07 12:24:53;;;;;;;10.13;1.83;;;;;;;;;;5033914;28;20832;-67
2022/11/07 12:27:24;;;;;;;3.60;1.60;;;;;;;;;;5034555;28;20430;-67
2022/11/07 12:30:01;;;;;;;3.93;1.97;;;;;;;;;;5034656;28;20433;-67
2022/11/07 12:32:33;;;;;;;4.00;2.00;;;;;;;;;;5038271;28;20485;-67
2022/11/07 12:35:09;;;;;;;3.60;2.13;;;;;;;;;;5038457;28;20431;-67
2022/11/07 12:37:43;;;;;;;7.83;3.07;;;;;;;;;;5038295;28;20444;-66
2022/11/07 12:40:16;;;;;;;11.40;2.70;;;;;;;;;;5038349;28;20425;-68
2022/11/07 12:42:48;;;;;;;4.23;1.77;;;;;;;;;;5037701;28;20462;-66
2022/11/07 12:45:22;;;;;;;3.53;2.03;;;;;;;;;;5038037;28;20442;-66
2022/11/07 12:47:55;;;;;;;3.70;2.10;;;;;;;;;;5037518;28;20421;-65
2022/11/07 12:50:27;;;;;;;5.43;1.50;;;;;;;;;;5037798;28;20435;-67
2022/11/07 12:53:02;;;;;;;3.80;1.40;;;;;;;;;;5037017;28;20458;-67
2022/11/07 12:55:32;;;;;;;14.20;2.17;;;;;;;;;;5036946;28;20433;-68
2022/11/07 12:57:59;;;;;;;7.27;1.50;;;;;;;;;;5036805;28;20446;-65
2022/11/07 13:00:29;;;;;;;2.70;2.03;;;;;;;;;;5037239;28;20530;-67
2022/11/07 13:03:06;;;;;;;2.30;1.97;;;;;;;;;;5037589;28;20550;-67
2022/11/07 13:05:39;;;;;;;3.13;2.00;;;;;;;;;;5037653;28;20536;-68
2022/11/07 13:08:09;;;;;;;5.10;2.43;;;;;;;;;;5037554;28;20448;-66
2022/11/07 13:10:41;;;;;;;8.00;2.10;;;;;;;;;;5037664;28;20434;-67
2022/11/07 13:13:11;;;;;;;5.13;2.60;;;;;;;;;;5038437;28;20435;-67
2022/11/07 13:15:40;;;;;;;5.57;2.80;;;;;;;;;;5037275;28;20999;-66
2022/11/07 13:18:14;;;;;;;6.17;2.80;;;;;;;;;;5037587;28;20446;-66
2022/11/07 13:20:41;;;;;;;4.80;2.30;;;;;;;;;;5036593;28;20480;-67
2022/11/07 13:23:14;;;;;;;4.93;2.40;;;;;;;;;;5036905;28;20448;-68
2022/11/07 13:25:41;;;;;;;5.10;2.00;;;;;;;;;;5037138;28;20544;-66
2022/11/07 13:28:36;;;;;;;5.50;2.77;;;;;;;;;;5036704;28;20446;-66
2022/11/07 13:31:05;;;;;;;5.50;2.30;;;;;;;;;;5001264;28;20507;-66
2022/11/07 13:33:33;;;;;;;4.17;1.90;;;;;;;;;;5036844;28;20456;-67
2022/11/07 13:36:11;;;;;;;4.13;1.90;;;;;;;;;;5036790;28;20453;-66
2022/11/07 13:38:41;;;;;;;7.00;2.50;;;;;;;;;;5038022;28;20521;-67
2022/11/07 13:41:08;;;;;;;5.60;2.00;;;;;;;;;;5037223;28;20644;-66
2022/11/07 13:43:40;;;;;;;6.23;2.73;;;;;;;;;;5037799;28;20452;-67
2022/11/07 13:46:10;;;;;;;2.43;1.83;;;;;;;;;;5037823;28;20807;-67
2022/11/07 13:48:42;;;;;;;3.80;1.73;;;;;;;;;;5037489;28;20996;-67
2022/11/07 13:51:11;;;;;;;3.57;2.00;;;;;;;;;;5037277;28;20486;-65
2022/11/07 13:53:41;;;;;;;4.00;1.87;;;;;;;;;;5037550;28;20444;-66
2022/11/07 13:56:12;;;;;;;6.67;2.30;;;;;;;;;;5038233;28;20452;-67
2022/11/07 13:58:39;;;;;;;3.47;1.70;;;;;;;;;;5037718;28;20437;-68
2022/11/07 14:01:11;;;;;;;4.10;1.70;;;;;;;;;;5038001;28;20929;-67
2022/11/07 14:03:39;;;;;;;5.97;2.00;;;;;;;;;;5038568;28;20442;-66
2022/11/07 14:06:06;;;;;;;3.50;1.50;;;;;;;;;;5038769;28;20456;-67
2022/11/07 14:08:36;;;;;;;2.80;1.60;;;;;;;;;;5038969;28;20448;-67
2022/11/07 14:11:03;;;;;;;2.73;1.40;;;;;;;;;;5039665;28;20475;-66
2022/11/07 14:13:31;;;;;;;2.10;1.57;;;;;;;;;;5038984;28;20453;-67
2022/11/07 14:16:00;;;;;;;2.80;1.53;;;;;;;;;;5037938;28;20451;-67
2022/11/07 14:18:29;;;;;;;9.80;2.17;;;;;;;;;;5037509;28;20457;-67
2022/11/07 14:20:57;;;;;;;2.80;1.97;;;;;;;;;;5036442;28;20465;-67
2022/11/07 14:23:25;;;;;;;9.90;1.97;;;;;;;;;;5036701;28;20921;-67
2022/11/07 14:25:57;;;;;;;7.43;2.50;;;;;;;;;;5036857;28;20444;-68
2022/11/07 14:28:24;;;;;;;10.67;2.93;;;;;;;;;;5036543;28;20864;-67
2022/11/07 14:30:53;;;;;;;10.93;2.30;;;;;;;;;;5036729;28;20951;-68
2022/11/07 14:33:22;;;;;;;2.33;1.40;;;;;;;;;;5036307;28;20442;-67
2022/11/07 14:35:51;;;;;;;4.07;1.60;;;;;;;;;;5036353;28;20976;-67
2022/11/07 14:38:21;;;;;;;3.77;1.60;;;;;;;;;;5036456;28;20460;-67
2022/11/07 14:40:48;;;;;;;3.30;2.10;;;;;;;;;;5035519;28;20829;-67
2022/11/07 14:43:18;;;;;;;3.07;1.80;;;;;;;;;;5037039;28;20444;-67
2022/11/07 14:45:46;;;;;;;4.30;1.53;;;;;;;;;;5036450;28;20447;-66
2022/11/07 14:48:13;;;;;;;2.53;1.60;;;;;;;;;;5037183;28;20449;-67
2022/11/07 14:50:41;;;;;;;2.80;1.67;;;;;;;;;;5036863;28;20456;-69
2022/11/07 14:53:11;;;;;;;3.80;1.80;;;;;;;;;;5036194;28;20485;-69
2022/11/07 14:55:39;;;;;;;2.80;1.80;;;;;;;;;;5037196;28;20456;-67
2022/11/07 14:58:07;;;;;;;6.43;2.23;;;;;;;;;;5036792;28;20462;-67
2022/11/07 15:00:35;;;;;;;6.00;2.10;;;;;;;;;;5037426;28;20499;-67
2022/11/07 15:03:02;;;;;;;3.00;1.90;;;;;;;;;;5036808;28;20453;-67
2022/11/07 15:05:30;;;;;;;2.40;1.87;;;;;;;;;;5037194;28;20756;-66